Terminal Aerodrome Forecast
Issued by NWS Missoula, MT

Home | Current Version | Previous Version | Text Only | Print | Product List | Glossary On
Versions: 1 2 3 4 5 6 7 8 9 10 11 12
000
FTUS45 KMSO 261126
TAFGPI
TAF
KGPI 261126Z 2612/2712 01011KT P6SM BKN050
     FM261800 15006KT P6SM SCT050 BKN100
     FM270200 VRB03KT P6SM SKC=

USA.gov is the U.S. government's official web portal to all federal, state and local government web resources and services.